Time;durP1;ratioP1;P1;durP2;ratioP2;P2;SDS_P1;SDS_P2;PMS_P1;PMS_P2;Temp;Humidity;BMP_temperature;BMP_pressure;BME280_temperature;BME280_humidity;BME280_pressure;Samples;Min_cycle;Max_cycle;Signal;HPM_P1;HPM_P2
2024/03/11 00:02:00;;;;;;;0.30;0.20;;;13.80;99.90;;;;;;5064131;28;20406;-79
2024/03/11 00:04:27;;;;;;;0.30;0.20;;;13.70;99.90;;;;;;5065023;28;20568;-80
2024/03/11 00:06:53;;;;;;;0.60;0.60;;;13.70;99.90;;;;;;5065057;28;20898;-79
2024/03/11 00:09:32;;;;;;;0.30;0.20;;;13.70;99.90;;;;;;5063615;28;20442;-76
2024/03/11 00:12:00;;;;;;;0.30;0.20;;;13.70;99.90;;;;;;5063480;28;20219;-79
2024/03/11 00:14:28;;;;;;;0.30;0.20;;;13.70;99.90;;;;;;5064888;28;20505;-75
2024/03/11 00:16:55;;;;;;;0.70;0.70;;;13.70;99.90;;;;;;5065120;28;20411;-79
2024/03/11 00:19:21;;;;;;;0.50;0.50;;;13.70;99.90;;;;;;5063750;28;20519;-79
2024/03/11 00:21:51;;;;;;;0.30;0.20;;;13.70;99.90;;;;;;5064942;28;20422;-74
2024/03/11 00:24:18;;;;;;;0.30;0.20;;;13.70;99.90;;;;;;5064693;28;20470;-75
2024/03/11 00:26:45;;;;;;;1.43;1.07;;;13.60;99.90;;;;;;5063620;28;20634;-75
2024/03/11 00:29:10;;;;;;;0.40;0.40;;;13.60;99.90;;;;;;5064886;28;20794;-75
2024/03/11 00:31:37;;;;;;;0.30;0.20;;;13.60;99.90;;;;;;5065287;28;20414;-79
2024/03/11 00:34:03;;;;;;;0.30;0.20;;;13.60;99.90;;;;;;5064453;28;20408;-79
2024/03/11 00:36:31;;;;;;;0.80;0.80;;;13.50;99.90;;;;;;5063689;28;20421;-77
2024/03/11 00:38:57;;;;;;;0.30;0.20;;;13.50;99.90;;;;;;5063336;28;20955;-80
2024/03/11 00:41:26;;;;;;;0.30;0.20;;;13.40;99.90;;;;;;5064764;28;20410;-79
2024/03/11 00:43:51;;;;;;;0.30;0.20;;;13.40;99.90;;;;;;5062703;28;20473;-75
2024/03/11 00:46:18;;;;;;;0.30;0.27;;;13.40;99.90;;;;;;5063570;28;20965;-74
2024/03/11 00:48:45;;;;;;;66.30;6.93;;;13.40;99.90;;;;;;5063403;28;20197;-75
2024/03/11 00:51:11;;;;;;;1.03;0.97;;;13.40;99.90;;;;;;5064817;28;20430;-74
2024/03/11 00:53:37;;;;;;;0.30;0.20;;;13.30;99.90;;;;;;5063192;28;21158;-75
2024/03/11 00:56:06;;;;;;;0.53;0.53;;;13.30;99.90;;;;;;5063359;28;20438;-74
2024/03/11 00:58:35;;;;;;;1.13;1.13;;;13.40;99.90;;;;;;5068208;28;20996;-79
2024/03/11 01:01:02;;;;;;;0.30;0.30;;;13.40;99.90;;;;;;5068324;28;21143;-75
2024/03/11 01:03:31;;;;;;;0.30;0.20;;;13.40;99.90;;;;;;5065308;28;20799;-76
2024/03/11 01:05:58;;;;;;;0.30;0.20;;;13.40;99.90;;;;;;5066807;28;20458;-75
2024/03/11 01:08:24;;;;;;;0.40;0.20;;;13.40;99.90;;;;;;5067785;28;20933;-75
2024/03/11 01:10:50;;;;;;;0.30;0.20;;;13.40;99.90;;;;;;5068452;28;20505;-75
2024/03/11 01:13:16;;;;;;;0.30;0.20;;;13.40;99.90;;;;;;5066201;28;20521;-79
2024/03/11 01:15:42;;;;;;;0.30;0.30;;;13.40;99.90;;;;;;5068455;28;20240;-79
2024/03/11 01:18:08;;;;;;;0.30;0.20;;;13.40;99.90;;;;;;5067706;28;20418;-79
2024/03/11 01:20:38;;;;;;;0.30;0.20;;;13.50;99.90;;;;;;5068104;28;20420;-79
2024/03/11 01:23:05;;;;;;;0.50;0.50;;;13.50;99.90;;;;;;5067656;28;20464;-78
2024/03/11 01:25:31;;;;;;;0.30;0.20;;;13.50;99.90;;;;;;5068073;28;20448;-78
2024/03/11 01:27:57;;;;;;;0.30;0.20;;;13.60;99.90;;;;;;5066278;28;20436;-78
2024/03/11 01:30:24;;;;;;;0.30;0.20;;;13.60;99.90;;;;;;5068005;28;20422;-74
2024/03/11 01:32:50;;;;;;;1.30;1.20;;;13.60;99.90;;;;;;5065949;28;20193;-78
2024/03/11 01:35:17;;;;;;;0.30;0.20;;;13.70;99.90;;;;;;5065915;28;20591;-78
2024/03/11 01:37:43;;;;;;;1.37;1.37;;;13.80;99.90;;;;;;5067474;28;20415;-75
2024/03/11 01:40:15;;;;;;;0.30;0.30;;;13.80;99.90;;;;;;5067486;28;20434;-79
2024/03/11 01:42:42;;;;;;;0.30;0.30;;;13.80;99.90;;;;;;5067086;28;20200;-74
2024/03/11 01:45:09;;;;;;;2.43;1.37;;;13.90;99.90;;;;;;5065987;28;21075;-74
2024/03/11 01:47:39;;;;;;;0.30;0.30;;;13.90;99.90;;;;;;5066032;28;20508;-75
2024/03/11 01:50:07;;;;;;;0.97;0.90;;;13.90;99.90;;;;;;5066103;28;20438;-78
2024/03/11 01:52:45;;;;;;;0.30;0.20;;;13.80;99.90;;;;;;5067112;28;20670;-74
2024/03/11 01:55:11;;;;;;;0.30;0.20;;;13.90;99.90;;;;;;5066169;28;20436;-81
2024/03/11 01:57:39;;;;;;;1.30;1.20;;;13.90;99.90;;;;;;5066884;28;20717;-74
2024/03/11 02:00:08;;;;;;;0.30;0.20;;;13.80;99.90;;;;;;5066088;28;20802;-78
2024/03/11 02:02:40;;;;;;;1.57;1.47;;;13.90;99.90;;;;;;5066707;28;20429;-78
2024/03/11 02:05:13;;;;;;;0.40;0.27;;;13.90;99.90;;;;;;5066997;28;20629;-78
2024/03/11 02:07:39;;;;;;;0.30;0.20;;;13.80;99.90;;;;;;5064898;28;20476;-78
2024/03/11 02:10:13;;;;;;;0.30;0.20;;;13.80;99.90;;;;;;5065994;28;20776;-78
2024/03/11 02:12:40;;;;;;;0.30;0.20;;;13.90;99.90;;;;;;5066826;28;20969;-74
2024/03/11 02:15:10;;;;;;;0.30;0.30;;;13.80;99.90;;;;;;5067026;28;20465;-78
2024/03/11 02:17:40;;;;;;;0.30;0.30;;;13.80;99.90;;;;;;5066705;28;20853;-74
2024/03/11 02:20:15;;;;;;;0.30;0.20;;;13.80;99.90;;;;;;5065534;28;20512;-74
2024/03/11 02:22:45;;;;;;;0.77;0.77;;;13.80;99.90;;;;;;5066273;28;20747;-74
2024/03/11 02:25:22;;;;;;;0.30;0.20;;;13.80;99.90;;;;;;5066642;28;20706;-78
2024/03/11 02:27:51;;;;;;;0.30;0.20;;;13.70;99.90;;;;;;5064938;28;20849;-74
2024/03/11 02:30:17;;;;;;;0.70;0.70;;;13.70;99.90;;;;;;5064982;28;20602;-74
2024/03/11 02:32:44;;;;;;;0.30;0.20;;;13.70;99.90;;;;;;5066285;28;20426;-78
2024/03/11 02:35:10;;;;;;;0.40;0.30;;;13.70;99.90;;;;;;5066342;28;20183;-79
2024/03/11 02:37:36;;;;;;;0.30;0.20;;;13.70;99.90;;;;;;5066351;28;20422;-78
2024/03/11 02:40:09;;;;;;;0.30;0.30;;;13.70;99.90;;;;;;5066719;28;20460;-78
2024/03/11 02:42:35;;;;;;;0.60;0.60;;;13.70;99.90;;;;;;5064818;28;20468;-78
2024/03/11 02:45:05;;;;;;;0.30;0.20;;;13.70;99.90;;;;;;5066418;28;20540;-78
2024/03/11 02:47:32;;;;;;;4.37;2.90;;;13.60;99.90;;;;;;5065926;28;20422;-75
2024/03/11 02:49:57;;;;;;;0.30;0.30;;;13.60;99.90;;;;;;5065069;28;20429;-74
2024/03/11 02:52:23;;;;;;;1.27;1.17;;;13.60;99.90;;;;;;5065893;28;20871;-79
2024/03/11 02:54:51;;;;;;;0.30;0.20;;;13.60;99.90;;;;;;5066534;28;20634;-78
2024/03/11 02:57:21;;;;;;;0.63;0.63;;;13.60;99.90;;;;;;5064368;28;20181;-74
2024/03/11 02:59:46;;;;;;;1.03;1.03;;;13.50;99.90;;;;;;5066057;28;20421;-79
2024/03/11 03:02:12;;;;;;;0.30;0.20;;;13.50;99.90;;;;;;5065767;28;20463;-79
2024/03/11 03:04:39;;;;;;;0.30;0.30;;;13.50;99.90;;;;;;5065880;28;20212;-79
2024/03/11 03:07:06;;;;;;;0.30;0.20;;;13.50;99.90;;;;;;5064270;28;20184;-75
2024/03/11 03:09:32;;;;;;;0.30;0.20;;;13.50;99.90;;;;;;5065737;28;20522;-79
2024/03/11 03:12:00;;;;;;;1.20;1.17;;;13.50;99.90;;;;;;5065050;28;20493;-74
2024/03/11 03:14:26;;;;;;;1.23;1.13;;;13.50;99.90;;;;;;5065197;28;20315;-79
2024/03/11 03:16:51;;;;;;;1.60;1.60;;;13.50;99.90;;;;;;5064178;28;20871;-77
2024/03/11 03:19:17;;;;;;;0.30;0.20;;;13.50;99.90;;;;;;5064528;28;20200;-74
2024/03/11 03:21:43;;;;;;;0.30;0.20;;;13.40;99.90;;;;;;5064101;28;20206;-74
2024/03/11 03:24:08;;;;;;;1.60;1.60;;;13.40;99.90;;;;;;5065574;28;20727;-79
2024/03/11 03:26:35;;;;;;;1.90;1.80;;;13.40;99.90;;;;;;5063954;28;20204;-74
2024/03/11 03:29:01;;;;;;;0.30;0.20;;;13.40;99.90;;;;;;5065329;28;20250;-74
2024/03/11 03:31:28;;;;;;;0.40;0.30;;;13.40;99.90;;;;;;5064280;28;20426;-74
2024/03/11 03:33:54;;;;;;;0.30;0.20;;;13.40;99.90;;;;;;5064152;28;20445;-78
2024/03/11 03:36:19;;;;;;;0.30;0.20;;;13.40;99.90;;;;;;5065355;28;20410;-78
2024/03/11 03:38:45;;;;;;;0.70;0.70;;;13.30;99.90;;;;;;5065140;28;20192;-74
2024/03/11 03:41:11;;;;;;;0.40;0.40;;;13.30;99.90;;;;;;5065567;28;20177;-74
2024/03/11 03:43:38;;;;;;;0.30;0.20;;;13.30;99.90;;;;;;5065113;28;20822;-79
2024/03/11 03:46:05;;;;;;;0.30;0.20;;;13.30;99.90;;;;;;5064329;28;20721;-79
2024/03/11 03:48:31;;;;;;;0.30;0.20;;;13.40;99.90;;;;;;5065080;28;20465;-79
2024/03/11 03:50:57;;;;;;;0.60;0.57;;;13.30;99.90;;;;;;5065641;28;20922;-75
2024/03/11 03:53:23;;;;;;;0.30;0.20;;;13.40;99.90;;;;;;5065219;28;20200;-75
2024/03/11 03:55:49;;;;;;;0.60;0.60;;;13.40;99.90;;;;;;5063558;28;20422;-74
2024/03/11 03:58:15;;;;;;;0.30;0.20;;;13.40;99.90;;;;;;5065315;28;20480;-79
2024/03/11 04:00:41;;;;;;;0.40;0.40;;;13.40;99.90;;;;;;5065191;28;20472;-79
2024/03/11 04:03:06;;;;;;;0.30;0.20;;;13.40;99.90;;;;;;5064861;28;20244;-79
2024/03/11 04:05:32;;;;;;;0.47;0.47;;;13.40;99.90;;;;;;5065242;28;20179;-74
2024/03/11 04:07:58;;;;;;;0.30;0.20;;;13.40;99.90;;;;;;5064819;28;20711;-77
2024/03/11 04:10:24;;;;;;;1.27;1.17;;;13.40;99.90;;;;;;5063904;28;20181;-79
2024/03/11 04:12:52;;;;;;;0.83;0.77;;;13.40;99.90;;;;;;5062586;28;20434;-74
2024/03/11 04:15:23;;;;;;;1.90;1.53;;;13.40;99.90;;;;;;5064867;28;20469;-74
2024/03/11 04:17:50;;;;;;;0.30;0.20;;;13.40;99.90;;;;;;5064537;28;20422;-79
2024/03/11 04:20:16;;;;;;;0.30;0.20;;;13.40;99.90;;;;;;5065361;28;20938;-79
2024/03/11 04:22:46;;;;;;;1.10;1.00;;;13.40;99.90;;;;;;5063181;28;20433;-79
2024/03/11 04:25:16;;;;;;;0.30;0.20;;;13.40;99.90;;;;;;5065055;28;20434;-75
2024/03/11 04:27:43;;;;;;;0.30;0.20;;;13.40;99.90;;;;;;5064904;28;20430;-75
2024/03/11 04:30:09;;;;;;;0.40;0.40;;;13.40;99.90;;;;;;5064979;28;20414;-75
2024/03/11 04:32:35;;;;;;;0.93;0.93;;;13.40;99.90;;;;;;5066439;28;20428;-79
2024/03/11 04:35:03;;;;;;;0.30;0.20;;;13.40;99.90;;;;;;5069081;28;20425;-79
2024/03/11 04:37:29;;;;;;;0.30;0.20;;;13.40;99.90;;;;;;5068367;28;20728;-74
2024/03/11 04:39:56;;;;;;;0.40;0.40;;;13.40;99.90;;;;;;5067346;28;20434;-79
2024/03/11 04:42:22;;;;;;;1.33;1.33;;;13.40;99.90;;;;;;5067034;28;20455;-79
2024/03/11 04:44:49;;;;;;;10.43;2.10;;;13.40;99.90;;;;;;5066969;28;20523;-75
2024/03/11 04:47:15;;;;;;;0.30;0.20;;;13.40;99.90;;;;;;5066547;28;20447;-74
2024/03/11 04:49:42;;;;;;;0.30;0.20;;;13.50;99.90;;;;;;5067133;28;20428;-74
2024/03/11 04:52:08;;;;;;;0.30;0.30;;;13.50;99.90;;;;;;5066956;28;20405;-79
2024/03/11 04:54:34;;;;;;;0.30;0.20;;;13.50;99.90;;;;;;5068252;28;20475;-82
2024/03/11 04:57:00;;;;;;;0.30;0.20;;;13.50;99.90;;;;;;5067066;28;20483;-78
2024/03/11 04:59:27;;;;;;;0.30;0.20;;;13.50;99.90;;;;;;5067004;28;20558;-78
2024/03/11 05:01:53;;;;;;;0.50;0.50;;;13.60;99.90;;;;;;5066408;28;20421;-79
2024/03/11 05:04:18;;;;;;;0.63;0.63;;;13.60;99.90;;;;;;5068093;28;20453;-75
2024/03/11 05:06:44;;;;;;;0.30;0.20;;;13.60;99.90;;;;;;5065830;28;20529;-77
2024/03/11 05:09:10;;;;;;;0.40;0.40;;;13.60;99.90;;;;;;5066609;28;20229;-75
2024/03/11 05:11:35;;;;;;;0.30;0.23;;;13.60;99.90;;;;;;5084603;28;20180;-81
2024/03/11 05:14:01;;;;;;;0.30;0.20;;;13.60;99.90;;;;;;5085579;28;20256;-77
2024/03/11 05:16:27;;;;;;;2.10;1.90;;;13.60;99.90;;;;;;5073750;28;20211;-76
2024/03/11 05:18:52;;;;;;;0.53;0.53;;;13.60;99.90;;;;;;5082526;28;20474;-75
2024/03/11 05:21:19;;;;;;;1.13;1.13;;;13.60;99.90;;;;;;5087542;28;20176;-81
2024/03/11 05:23:44;;;;;;;0.30;0.30;;;13.60;99.90;;;;;;5086573;28;20249;-75
2024/03/11 05:26:10;;;;;;;0.30;0.20;;;13.60;99.90;;;;;;5084663;28;20997;-75
2024/03/11 05:28:36;;;;;;;1.53;1.53;;;13.60;99.90;;;;;;5072797;28;20463;-74
2024/03/11 05:31:01;;;;;;;0.53;0.53;;;13.60;99.90;;;;;;5066126;28;20314;-74
2024/03/11 05:33:29;;;;;;;0.30;0.20;;;13.50;99.90;;;;;;5067319;28;20436;-74
2024/03/11 05:35:55;;;;;;;0.30;0.20;;;13.50;99.90;;;;;;5084385;28;20181;-79
2024/03/11 05:38:20;;;;;;;0.30;0.20;;;13.50;99.90;;;;;;5073072;28;20430;-75
2024/03/11 05:40:47;;;;;;;0.30;0.20;;;13.50;99.90;;;;;;5069096;28;20191;-78
2024/03/11 05:43:13;;;;;;;0.30;0.20;;;13.50;99.90;;;;;;5085376;28;20579;-74
2024/03/11 05:45:38;;;;;;;1.83;1.73;;;13.50;99.90;;;;;;5076569;28;20421;-79
2024/03/11 05:48:06;;;;;;;0.30;0.20;;;13.50;99.90;;;;;;5072746;28;20439;-75
2024/03/11 05:50:32;;;;;;;0.30;0.20;;;13.50;99.90;;;;;;5073201;28;20238;-79
2024/03/11 05:52:58;;;;;;;0.40;0.40;;;13.50;99.90;;;;;;5074787;28;20524;-79
2024/03/11 05:55:32;;;;;;;0.30;0.20;;;13.50;99.90;;;;;;5084681;28;20767;-75
2024/03/11 05:58:08;;;;;;;0.30;0.27;;;13.50;99.90;;;;;;5078651;28;20445;-76
2024/03/11 06:00:41;;;;;;;1.23;1.23;;;13.60;99.90;;;;;;5067213;28;20524;-81
2024/03/11 06:03:08;;;;;;;11.93;4.03;;;13.70;99.90;;;;;;5074680;28;20476;-78
2024/03/11 06:05:34;;;;;;;0.30;0.20;;;13.70;99.90;;;;;;5087326;28;20754;-76
2024/03/11 06:08:00;;;;;;;0.30;0.30;;;13.70;99.90;;;;;;5068941;28;20448;-74
2024/03/11 06:10:26;;;;;;;0.30;0.20;;;13.70;99.90;;;;;;5078817;28;20680;-75
2024/03/11 06:12:52;;;;;;;1.07;1.07;;;13.60;99.90;;;;;;5083531;28;20452;-75
2024/03/11 06:15:18;;;;;;;0.30;0.20;;;13.60;99.90;;;;;;5080035;28;20484;-75
2024/03/11 06:17:44;;;;;;;0.30;0.20;;;13.60;99.90;;;;;;5072160;28;20235;-75
2024/03/11 06:20:13;;;;;;;0.30;0.20;;;13.60;99.90;;;;;;5079150;28;20668;-79
2024/03/11 06:22:39;;;;;;;1.10;1.03;;;13.60;99.90;;;;;;5084377;28;20431;-75
2024/03/11 06:25:06;;;;;;;0.30;0.20;;;13.60;99.90;;;;;;5082721;28;20476;-75
2024/03/11 06:27:32;;;;;;;0.30;0.20;;;13.60;99.90;;;;;;5078481;28;20436;-75
2024/03/11 06:29:58;;;;;;;0.40;0.20;;;13.50;99.90;;;;;;5080379;28;20494;-81
2024/03/11 06:32:30;;;;;;;0.30;0.20;;;13.60;99.90;;;;;;5080162;28;20279;-75
2024/03/11 06:34:56;;;;;;;0.30;0.20;;;13.50;99.90;;;;;;5081719;28;20189;-79
2024/03/11 06:37:22;;;;;;;0.30;0.20;;;13.50;99.90;;;;;;5084253;28;20401;-75
2024/03/11 06:39:47;;;;;;;0.30;0.20;;;13.60;99.90;;;;;;5085092;28;20487;-75
2024/03/11 06:42:13;;;;;;;0.30;0.20;;;13.60;99.90;;;;;;5082808;28;20179;-76
2024/03/11 06:44:38;;;;;;;0.30;0.20;;;13.60;99.90;;;;;;5078565;28;20258;-75
2024/03/11 06:47:05;;;;;;;0.30;0.20;;;13.70;99.90;;;;;;5072667;28;20188;-79
2024/03/11 06:49:32;;;;;;;0.30;0.20;;;13.70;99.90;;;;;;5083905;28;20595;-79
2024/03/11 06:51:58;;;;;;;0.30;0.20;;;13.80;99.90;;;;;;5083634;28;20790;-75
2024/03/11 06:54:24;;;;;;;0.30;0.20;;;13.80;99.90;;;;;;5080839;28;20487;-75
2024/03/11 06:56:50;;;;;;;0.30;0.30;;;13.80;99.90;;;;;;5077657;28;20649;-75
2024/03/11 06:59:15;;;;;;;0.30;0.20;;;13.90;99.90;;;;;;5073955;28;20659;-75
2024/03/11 07:01:41;;;;;;;1.17;1.07;;;14.00;99.90;;;;;;5075502;28;20473;-75
2024/03/11 07:04:08;;;;;;;0.30;0.20;;;14.00;99.90;;;;;;5071546;28;20254;-75
2024/03/11 07:06:34;;;;;;;0.80;0.80;;;14.00;99.90;;;;;;5078574;28;20429;-80
2024/03/11 07:09:03;;;;;;;0.30;0.20;;;14.10;99.90;;;;;;5079373;28;20516;-75
2024/03/11 07:11:29;;;;;;;9.77;2.73;;;14.10;99.90;;;;;;5080347;28;20502;-79
2024/03/11 07:13:54;;;;;;;0.30;0.20;;;14.10;99.90;;;;;;5079535;28;20543;-79
2024/03/11 07:16:21;;;;;;;4.80;3.67;;;14.20;99.90;;;;;;5072226;28;20200;-79
2024/03/11 07:18:49;;;;;;;0.40;0.30;;;14.20;99.90;;;;;;5070599;28;20361;-76
2024/03/11 07:21:15;;;;;;;0.30;0.20;;;14.30;99.90;;;;;;5071720;28;20623;-74
2024/03/11 07:23:41;;;;;;;0.30;0.30;;;14.40;99.90;;;;;;5060082;28;20627;-74
2024/03/11 07:26:07;;;;;;;0.30;0.20;;;14.40;99.90;;;;;;5080716;28;20493;-79
2024/03/11 07:28:33;;;;;;;0.30;0.20;;;14.40;99.90;;;;;;5081155;28;20279;-79
2024/03/11 07:31:00;;;;;;;0.30;0.20;;;14.40;99.90;;;;;;5080154;28;20524;-74
2024/03/11 07:33:26;;;;;;;0.40;0.30;;;14.40;99.90;;;;;;5074229;28;20307;-75
2024/03/11 07:35:53;;;;;;;1.57;1.50;;;14.40;99.90;;;;;;5074314;28;20456;-79
2024/03/11 07:38:19;;;;;;;0.30;0.20;;;14.40;99.90;;;;;;5078880;28;20518;-79
2024/03/11 07:40:45;;;;;;;0.93;0.93;;;14.40;99.90;;;;;;5074905;28;20447;-79
2024/03/11 07:43:11;;;;;;;1.33;1.23;;;14.40;99.90;;;;;;5077145;28;20826;-75
2024/03/11 07:45:40;;;;;;;0.40;0.30;;;14.40;99.90;;;;;;5075506;28;20657;-79
2024/03/11 07:48:12;;;;;;;0.30;0.20;;;14.40;99.90;;;;;;5075480;28;20216;-75
2024/03/11 07:50:38;;;;;;;0.67;0.67;;;14.40;99.90;;;;;;5079507;28;20432;-80
2024/03/11 07:53:05;;;;;;;0.30;0.20;;;14.40;99.90;;;;;;5077349;28;21024;-79
2024/03/11 07:55:33;;;;;;;0.30;0.20;;;14.40;99.90;;;;;;5078692;28;20489;-80
2024/03/11 07:58:00;;;;;;;0.30;0.20;;;14.40;99.90;;;;;;5079706;28;20451;-81
2024/03/11 08:00:35;;;;;;;0.30;0.20;;;14.40;99.90;;;;;;5075804;28;20597;-77
2024/03/11 08:03:03;;;;;;;0.30;0.20;;;14.40;99.90;;;;;;5070008;28;20468;-78
2024/03/11 08:05:29;;;;;;;0.40;0.40;;;14.30;99.90;;;;;;5077905;28;20715;-80
2024/03/11 08:07:55;;;;;;;0.30;0.20;;;14.30;99.90;;;;;;5074122;28;20593;-77
2024/03/11 08:10:21;;;;;;;0.30;0.20;;;14.30;99.90;;;;;;5081341;28;20546;-81
2024/03/11 08:12:47;;;;;;;0.37;0.30;;;14.30;99.90;;;;;;5084976;28;20719;-80
2024/03/11 08:15:14;;;;;;;2.00;1.43;;;14.40;99.90;;;;;;5085195;28;20685;-79
2024/03/11 08:17:46;;;;;;;0.30;0.20;;;14.40;99.90;;;;;;5075243;28;20527;-79
2024/03/11 08:20:20;;;;;;;0.30;0.20;;;14.40;99.90;;;;;;5080440;28;20757;-78
2024/03/11 08:22:58;;;;;;;0.30;0.20;;;14.40;99.90;;;;;;5082811;28;20446;-78
2024/03/11 08:25:27;;;;;;;0.30;0.30;;;14.40;99.90;;;;;;5081529;28;20527;-76
2024/03/11 08:27:54;;;;;;;0.73;0.73;;;14.40;99.90;;;;;;5084285;28;20506;-78
2024/03/11 08:30:28;;;;;;;0.30;0.20;;;14.40;99.90;;;;;;5080535;28;20425;-76
2024/03/11 08:32:56;;;;;;;0.30;0.30;;;14.40;99.90;;;;;;5075529;28;20456;-78
2024/03/11 08:35:23;;;;;;;0.40;0.30;;;14.40;99.90;;;;;;5079376;28;20956;-77
2024/03/11 08:37:49;;;;;;;0.33;0.30;;;14.50;99.90;;;;;;5080176;28;20451;-78
2024/03/11 08:40:16;;;;;;;0.40;0.20;;;14.50;99.90;;;;;;5083124;28;20861;-77
2024/03/11 08:42:47;;;;;;;0.40;0.40;;;14.50;99.90;;;;;;5081205;28;20476;-78
2024/03/11 08:45:12;;;;;;;0.30;0.20;;;14.60;99.90;;;;;;5077359;28;20468;-78
2024/03/11 08:47:41;;;;;;;2.67;2.57;;;14.60;99.90;;;;;;5080377;28;20505;-77
2024/03/11 08:50:08;;;;;;;0.63;0.57;;;14.70;99.90;;;;;;5074771;28;20662;-77
2024/03/11 08:52:37;;;;;;;0.30;0.20;;;14.70;99.90;;;;;;5078805;28;21006;-77
2024/03/11 08:55:06;;;;;;;0.40;0.40;;;14.80;99.90;;;;;;5083385;28;20443;-78
2024/03/11 08:57:37;;;;;;;0.30;0.30;;;14.80;99.90;;;;;;5081704;28;20755;-78
2024/03/11 09:00:06;;;;;;;0.30;0.20;;;14.90;99.90;;;;;;5076618;28;20429;-77
2024/03/11 09:02:32;;;;;;;0.30;0.20;;;15.00;99.90;;;;;;5078169;28;20528;-77
2024/03/11 09:04:58;;;;;;;0.30;0.20;;;15.00;99.90;;;;;;5076714;28;20523;-77
2024/03/11 09:07:26;;;;;;;0.30;0.20;;;15.00;99.90;;;;;;5079563;28;20464;-77
2024/03/11 09:09:52;;;;;;;0.30;0.20;;;15.00;99.90;;;;;;5070473;28;20181;-77
2024/03/11 09:12:20;;;;;;;0.30;0.20;;;15.00;99.90;;;;;;5077738;28;20440;-77
2024/03/11 09:14:47;;;;;;;0.30;0.20;;;15.00;99.90;;;;;;5076477;28;21004;-77
2024/03/11 09:17:12;;;;;;;0.30;0.20;;;15.10;99.90;;;;;;5078980;28;20490;-77
2024/03/11 09:19:42;;;;;;;0.30;0.20;;;15.20;99.90;;;;;;5078418;28;21089;-77
2024/03/11 09:22:07;;;;;;;0.40;0.40;;;15.20;99.90;;;;;;5079422;28;20178;-77
2024/03/11 09:24:33;;;;;;;0.33;0.33;;;15.20;99.90;;;;;;5081207;28;20460;-77
2024/03/11 09:27:02;;;;;;;2.83;1.33;;;15.20;99.90;;;;;;5069234;28;20177;-77
2024/03/11 09:29:29;;;;;;;1.97;1.93;;;15.20;99.90;;;;;;5065662;28;20713;-77
2024/03/11 09:31:56;;;;;;;0.30;0.20;;;15.20;99.90;;;;;;5076498;28;20447;-77
2024/03/11 09:34:21;;;;;;;0.30;0.20;;;15.30;99.90;;;;;;5073522;28;20448;-77
2024/03/11 09:36:47;;;;;;;11.20;10.70;;;15.30;99.90;;;;;;5075873;28;20434;-77
2024/03/11 09:39:13;;;;;;;1.80;1.37;;;15.40;99.90;;;;;;5080131;28;20787;-77
2024/03/11 09:41:44;;;;;;;0.30;0.30;;;15.40;99.90;;;;;;5070500;28;20221;-77
2024/03/11 09:44:15;;;;;;;0.30;0.20;;;15.40;99.90;;;;;;5083474;28;20216;-77
2024/03/11 09:46:43;;;;;;;0.30;0.20;;;15.40;99.90;;;;;;5080501;28;20486;-78
2024/03/11 09:49:10;;;;;;;0.30;0.20;;;15.40;99.90;;;;;;5077349;28;20464;-77
2024/03/11 09:51:37;;;;;;;0.73;0.73;;;15.30;99.90;;;;;;5080288;28;20432;-77
2024/03/11 09:54:05;;;;;;;2.63;1.03;;;15.30;99.90;;;;;;5082200;28;21275;-78
2024/03/11 09:56:34;;;;;;;0.40;0.30;;;15.40;99.90;;;;;;5083151;28;20773;-78
2024/03/11 09:59:04;;;;;;;2.93;1.00;;;15.40;99.90;;;;;;5080085;28;20445;-78
2024/03/11 10:01:31;;;;;;;0.30;0.20;;;15.50;99.90;;;;;;5080089;28;20995;-77
2024/03/11 10:04:01;;;;;;;0.40;0.40;;;15.50;99.90;;;;;;5076839;28;20477;-78
2024/03/11 10:06:30;;;;;;;1.60;1.50;;;15.50;99.90;;;;;;5077587;28;20434;-77
2024/03/11 10:08:57;;;;;;;0.30;0.20;;;15.40;99.90;;;;;;5078278;28;21179;-74
2024/03/11 10:11:28;;;;;;;0.30;0.20;;;15.40;99.90;;;;;;5078885;28;20436;-77
2024/03/11 10:13:57;;;;;;;4.20;3.13;;;15.40;99.90;;;;;;5079215;28;21175;-77
2024/03/11 10:16:26;;;;;;;0.30;0.20;;;15.40;99.90;;;;;;5081073;28;20818;-77
2024/03/11 10:19:14;;;;;;;0.30;0.20;;;15.40;99.90;;;;;;5082328;28;20437;-78
2024/03/11 10:22:05;;;;;;;2.10;1.13;;;15.30;99.90;;;;;;5071088;28;20429;-80
2024/03/11 10:24:35;;;;;;;0.30;0.20;;;15.20;99.90;;;;;;5098520;28;20477;-78
2024/03/11 10:27:22;;;;;;;0.30;0.30;;;15.30;99.90;;;;;;5080185;28;20467;-76
2024/03/11 10:29:54;;;;;;;0.30;0.30;;;15.30;99.90;;;;;;5081142;28;20467;-75
2024/03/11 10:32:42;;;;;;;0.30;0.20;;;15.30;99.90;;;;;;5081409;28;20425;-77
2024/03/11 10:35:11;;;;;;;3.60;2.77;;;15.20;99.90;;;;;;5079615;28;20440;-76
2024/03/11 10:37:37;;;;;;;0.77;0.77;;;15.10;99.90;;;;;;5082509;28;20515;-77
2024/03/11 10:40:10;;;;;;;0.30;0.20;;;15.10;99.90;;;;;;5079783;28;20413;-78
2024/03/11 10:42:37;;;;;;;0.30;0.20;;;15.00;99.90;;;;;;5082352;28;20481;-76
2024/03/11 10:45:14;;;;;;;0.30;0.20;;;15.00;99.90;;;;;;5073618;28;20469;-75
2024/03/11 10:47:44;;;;;;;8.97;8.67;;;14.80;99.90;;;;;;5078846;28;20450;-76
2024/03/11 10:50:14;;;;;;;0.30;0.20;;;14.80;99.90;;;;;;5078753;28;20421;-77
2024/03/11 10:52:43;;;;;;;0.30;0.20;;;14.80;99.90;;;;;;5079756;28;20532;-75
2024/03/11 10:55:09;;;;;;;0.30;0.20;;;14.80;99.90;;;;;;5077168;28;20440;-75
2024/03/11 10:57:39;;;;;;;0.30;0.30;;;14.90;99.90;;;;;;5080716;28;20445;-75
2024/03/11 11:02:43;;;;;;;0.40;0.40;;;14.90;99.90;;;;;;5080125;28;20565;-76
2024/03/11 11:05:12;;;;;;;0.30;0.20;;;14.90;99.90;;;;;;5078950;28;20469;-74
2024/03/11 11:07:42;;;;;;;0.40;0.40;;;15.00;99.90;;;;;;5090969;27;20450;-75
2024/03/11 11:10:17;;;;;;;0.30;0.20;;;15.00;99.90;;;;;;5075940;28;20440;-77
2024/03/11 11:12:43;;;;;;;0.70;0.70;;;15.10;99.90;;;;;;5077137;28;20440;-74
2024/03/11 11:15:14;;;;;;;0.30;0.20;;;15.20;99.90;;;;;;5076894;28;20464;-75
2024/03/11 11:17:42;;;;;;;0.30;0.20;;;15.30;99.90;;;;;;5076234;28;20449;-78
2024/03/11 11:20:37;;;;;;;0.30;0.20;;;15.30;99.90;;;;;;5076361;28;20475;-78
2024/03/11 11:23:05;;;;;;;0.30;0.20;;;15.30;99.90;;;;;;5076706;28;20465;-76
2024/03/11 11:25:39;;;;;;;0.30;0.20;;;15.30;99.90;;;;;;5078777;28;20436;-78
2024/03/11 11:28:07;;;;;;;0.30;0.20;;;15.20;99.90;;;;;;5062615;28;20463;-75
2024/03/11 11:30:33;;;;;;;1.03;1.03;;;15.20;99.90;;;;;;5078946;28;20436;-76
2024/03/11 11:33:01;;;;;;;1.03;1.03;;;15.20;99.90;;;;;;5074121;28;20456;-75
2024/03/11 11:35:37;;;;;;;0.50;0.50;;;15.10;99.90;;;;;;5079513;28;20176;-76
2024/03/11 11:38:24;;;;;;;0.30;0.20;;;15.20;99.90;;;;;;5079947;28;20456;-76
2024/03/11 11:40:53;;;;;;;0.30;0.20;;;15.20;99.90;;;;;;5073819;28;21158;-78
2024/03/11 11:43:24;;;;;;;0.50;0.40;;;15.30;99.90;;;;;;5074229;28;20504;-77
2024/03/11 11:45:54;;;;;;;0.30;0.20;;;15.40;99.90;;;;;;5069611;28;20472;-77
2024/03/11 11:48:25;;;;;;;0.30;0.20;;;15.40;99.90;;;;;;5067711;28;20450;-76
2024/03/11 11:50:57;;;;;;;0.30;0.20;;;15.50;99.90;;;;;;5071126;28;20441;-76
2024/03/11 11:53:27;;;;;;;0.30;0.20;;;15.50;99.90;;;;;;5065814;28;20798;-78
2024/03/11 11:55:53;;;;;;;0.40;0.40;;;15.70;99.90;;;;;;5068092;28;20547;-77
2024/03/11 11:58:19;;;;;;;0.30;0.20;;;15.80;99.90;;;;;;5066094;28;21021;-76
2024/03/11 12:00:56;;;;;;;0.47;0.43;;;15.80;99.90;;;;;;5068421;28;20440;-78
2024/03/11 12:03:30;;;;;;;3.30;3.13;;;15.90;99.90;;;;;;5067280;28;20476;-76
2024/03/11 12:06:19;;;;;;;0.30;0.20;;;16.00;99.90;;;;;;5074537;28;20442;-78
2024/03/11 12:08:47;;;;;;;0.30;0.20;;;16.00;99.90;;;;;;5071770;28;20447;-76
2024/03/11 12:11:19;;;;;;;0.30;0.30;;;16.00;99.90;;;;;;5075054;28;20425;-78
2024/03/11 12:13:46;;;;;;;0.30;0.20;;;16.00;99.90;;;;;;5070492;28;21035;-78
2024/03/11 12:16:24;;;;;;;0.60;0.60;;;15.80;99.90;;;;;;5077807;28;20913;-78
2024/03/11 12:19:01;;;;;;;0.40;0.40;;;15.70;99.90;;;;;;5086895;28;20489;-80
2024/03/11 12:21:28;;;;;;;0.87;0.87;;;15.60;99.90;;;;;;5075839;28;20485;-80
2024/03/11 12:23:56;;;;;;;0.30;0.20;;;15.60;99.90;;;;;;5074558;28;20830;-78
2024/03/11 12:26:21;;;;;;;0.40;0.40;;;15.50;99.90;;;;;;5073362;28;20454;-78
2024/03/11 12:29:08;;;;;;;0.30;0.20;;;15.50;99.90;;;;;;5074377;28;20513;-77
2024/03/11 12:31:36;;;;;;;0.30;0.30;;;15.60;99.90;;;;;;5066748;28;20286;-77
2024/03/11 12:34:14;;;;;;;0.50;0.47;;;15.60;99.90;;;;;;5065745;28;20764;-76
2024/03/11 12:36:48;;;;;;;1.37;1.27;;;15.70;99.90;;;;;;5078121;28;21005;-78
2024/03/11 12:39:29;;;;;;;4.83;4.63;;;15.80;99.90;;;;;;5078547;28;20560;-77
2024/03/11 12:41:56;;;;;;;0.30;0.20;;;15.80;99.90;;;;;;5080019;28;20505;-78
2024/03/11 12:44:24;;;;;;;0.30;0.20;;;15.70;99.90;;;;;;5077463;28;20497;-79
2024/03/11 12:46:53;;;;;;;0.30;0.27;;;15.80;99.90;;;;;;5075563;28;20602;-77
2024/03/11 12:49:27;;;;;;;0.30;0.20;;;15.80;99.90;;;;;;5076587;28;20441;-77
2024/03/11 12:52:12;;;;;;;0.50;0.50;;;15.70;99.90;;;;;;5078341;28;20699;-79
2024/03/11 12:54:38;;;;;;;0.30;0.20;;;15.60;99.90;;;;;;5083409;28;20638;-77